Time,TemperatureF,DewpointF,PressureIn,WindDirection,WindDirectionDegrees,WindSpeedMPH,WindSpeedGustMPH,Humidity,HourlyPrecipIn,Conditions,Clouds,dailyrainin,SolarRadiationWatts/m^2,SoftwareType,DateUTC
2013-03-16 00:02:00,44.0,43.0,-100.00,West,273,6.0,15.0,95,0.00,,,-99.99,1.000000,,2013-03-16 07:02:00,
2013-03-16 00:11:00,44.0,43.0,-100.00,West,273,6.0,15.0,95,0.00,,,-99.99,1.000000,,2013-03-16 07:11:00,
2013-03-16 00:42:00,43.0,42.0,-100.00,West,271,7.0,12.0,97,0.00,,,0.01,1.000000,,2013-03-16 07:42:00,
2013-03-16 00:52:00,43.0,42.0,-100.00,West,271,7.0,12.0,97,0.00,,,0.01,1.000000,,2013-03-16 07:52:00,
2013-03-16 01:02:00,43.0,42.0,-100.00,West,271,7.0,12.0,97,0.00,,,0.01,1.000000,,2013-03-16 08:02:00,
2013-03-16 01:12:00,43.0,42.0,-100.00,West,271,7.0,12.0,97,0.00,,,0.01,1.000000,,2013-03-16 08:12:00,
2013-03-16 01:42:00,44.0,42.0,-100.00,West,265,7.0,12.0,93,0.00,,,0.01,1.000000,,2013-03-16 08:42:00,
2013-03-16 01:52:00,44.0,42.0,-100.00,West,265,7.0,12.0,93,0.00,,,0.01,1.000000,,2013-03-16 08:52:00,
2013-03-16 02:01:00,44.0,42.0,-100.00,West,265,7.0,12.0,93,0.00,,,0.01,1.000000,,2013-03-16 09:01:00,
2013-03-16 02:11:00,44.0,42.0,-100.00,West,265,7.0,12.0,93,0.00,,,0.01,1.000000,,2013-03-16 09:11:00,
2013-03-16 02:33:00,43.0,43.0,-100.00,West,270,8.0,16.0,99,0.00,,,0.01,1.000000,,2013-03-16 09:33:00,
2013-03-16 02:42:00,43.0,43.0,-100.00,West,270,8.0,16.0,99,0.00,,,0.01,1.000000,,2013-03-16 09:42:00,
2013-03-16 02:53:00,43.0,43.0,-100.00,West,270,8.0,16.0,99,0.00,,,0.01,1.000000,,2013-03-16 09:53:00,
2013-03-16 03:03:00,43.0,43.0,-100.00,West,270,8.0,16.0,99,0.00,,,0.01,1.000000,,2013-03-16 10:03:00,
2013-03-16 03:12:00,43.0,43.0,-100.00,West,270,8.0,16.0,99,0.00,,,0.01,1.000000,,2013-03-16 10:12:00,
2013-03-16 03:32:00,42.0,42.0,-100.00,West,268,7.0,15.0,100,0.01,,,0.01,1.000000,,2013-03-16 10:32:00,
2013-03-16 03:42:00,42.0,42.0,-100.00,West,268,7.0,15.0,100,0.01,,,0.01,1.000000,,2013-03-16 10:42:00,
2013-03-16 03:53:00,42.0,42.0,-100.00,West,268,7.0,15.0,100,0.01,,,0.01,1.000000,,2013-03-16 10:53:00,
2013-03-16 04:03:00,42.0,42.0,-100.00,West,268,7.0,15.0,100,0.01,,,0.01,1.000000,,2013-03-16 11:03:00,
2013-03-16 04:11:00,42.0,42.0,-100.00,West,268,7.0,15.0,100,0.01,,,0.01,1.000000,,2013-03-16 11:11:00,
2013-03-16 04:33:00,41.0,41.0,-100.00,West,265,10.0,20.0,100,0.00,,,0.01,1.000000,,2013-03-16 11:33:00,
2013-03-16 04:43:00,41.0,41.0,-100.00,West,265,10.0,20.0,100,0.00,,,0.01,1.000000,,2013-03-16 11:43:00,
2013-03-16 04:52:00,41.0,41.0,-100.00,West,265,10.0,20.0,100,0.00,,,0.01,1.000000,,2013-03-16 11:52:00,
2013-03-16 05:01:00,41.0,41.0,-100.00,West,265,10.0,20.0,100,0.00,,,0.01,1.000000,,2013-03-16 12:01:00,
2013-03-16 05:12:00,41.0,41.0,-100.00,West,265,10.0,20.0,100,0.00,,,0.01,1.000000,,2013-03-16 12:12:00,
2013-03-16 05:43:00,40.0,40.0,-100.00,West,264,10.0,19.0,100,0.00,,,0.01,1.000000,,2013-03-16 12:43:00,
2013-03-16 05:52:00,40.0,40.0,-100.00,West,264,10.0,19.0,100,0.00,,,0.01,1.000000,,2013-03-16 12:52:00,
2013-03-16 06:02:00,40.0,40.0,-100.00,West,264,10.0,19.0,100,0.00,,,0.01,1.000000,,2013-03-16 13:02:00,
2013-03-16 06:12:00,40.0,40.0,-100.00,West,264,10.0,19.0,100,0.00,,,0.01,1.000000,,2013-03-16 13:12:00,
2013-03-16 06:42:00,40.0,40.0,-100.00,West,261,10.0,19.0,100,0.01,,,0.02,1.000000,,2013-03-16 13:42:00,
2013-03-16 06:53:00,40.0,40.0,-100.00,West,261,10.0,19.0,100,0.01,,,0.02,1.000000,,2013-03-16 13:53:00,
2013-03-16 07:02:00,40.0,40.0,-100.00,West,261,10.0,19.0,100,0.01,,,0.02,1.000000,,2013-03-16 14:02:00,
2013-03-16 07:12:00,40.0,40.0,-100.00,West,261,10.0,19.0,100,0.01,,,0.02,1.000000,,2013-03-16 14:12:00,
2013-03-16 07:42:00,38.0,38.0,-100.00,West,263,10.0,19.0,100,0.01,,,0.03,1.000000,,2013-03-16 14:42:00,
2013-03-16 07:52:00,38.0,38.0,-100.00,West,263,10.0,19.0,100,0.01,,,0.03,1.000000,,2013-03-16 14:52:00,
2013-03-16 08:02:00,38.0,38.0,-100.00,West,263,10.0,19.0,100,0.01,,,0.03,1.000000,,2013-03-16 15:02:00,
2013-03-16 08:12:00,38.0,38.0,-100.00,West,263,10.0,19.0,100,0.01,,,0.03,1.000000,,2013-03-16 15:12:00,
2013-03-16 08:43:00,39.0,39.0,-100.00,West,266,11.0,21.0,100,0.00,,,0.03,25.000000,,2013-03-16 15:43:00,
2013-03-16 08:53:00,39.0,39.0,-100.00,West,266,11.0,21.0,100,0.00,,,0.03,25.000000,,2013-03-16 15:53:00,
2013-03-16 09:02:00,39.0,39.0,-100.00,West,266,11.0,21.0,100,0.00,,,0.03,25.000000,,2013-03-16 16:02:00,
2013-03-16 09:12:00,39.0,39.0,-100.00,West,266,11.0,21.0,100,0.00,,,0.03,25.000000,,2013-03-16 16:12:00,
2013-03-16 09:43:00,40.0,40.0,-100.00,West,264,10.0,18.0,100,0.01,,,0.04,135.000000,,2013-03-16 16:43:00,
2013-03-16 09:53:00,40.0,40.0,-100.00,West,264,10.0,18.0,100,0.01,,,0.04,135.000000,,2013-03-16 16:53:00,
2013-03-16 10:02:00,40.0,40.0,-100.00,West,264,10.0,18.0,100,0.01,,,0.04,135.000000,,2013-03-16 17:02:00,
2013-03-16 10:12:00,40.0,40.0,-100.00,West,264,10.0,18.0,100,0.01,,,0.04,135.000000,,2013-03-16 17:12:00,
2013-03-16 10:43:00,40.0,40.0,-100.00,West,263,12.0,21.0,100,0.01,,,0.05,169.000000,,2013-03-16 17:43:00,
2013-03-16 10:53:00,40.0,40.0,-100.00,West,263,12.0,21.0,100,0.01,,,0.05,169.000000,,2013-03-16 17:53:00,
2013-03-16 11:02:00,40.0,40.0,-100.00,West,263,12.0,21.0,100,0.01,,,0.05,169.000000,,2013-03-16 18:02:00,
2013-03-16 11:12:00,40.0,40.0,-100.00,West,263,12.0,21.0,100,0.01,,,0.05,169.000000,,2013-03-16 18:12:00,
2013-03-16 11:33:00,40.0,40.0,-100.00,West,262,10.0,20.0,100,0.00,,,0.05,177.000000,,2013-03-16 18:33:00,
2013-03-16 11:43:00,40.0,40.0,-100.00,West,262,10.0,20.0,100,0.00,,,0.05,177.000000,,2013-03-16 18:43:00,
2013-03-16 11:53:00,40.0,40.0,-100.00,West,262,10.0,20.0,100,0.00,,,0.05,177.000000,,2013-03-16 18:53:00,
2013-03-16 12:02:00,40.0,40.0,-100.00,West,262,10.0,20.0,100,0.00,,,0.05,177.000000,,2013-03-16 19:02:00,
2013-03-16 12:12:00,40.0,40.0,-100.00,West,262,10.0,20.0,100,0.00,,,0.05,177.000000,,2013-03-16 19:12:00,
2013-03-16 12:42:00,42.0,42.0,-100.00,West,262,11.0,20.0,100,0.02,,,0.07,204.000000,,2013-03-16 19:42:00,
2013-03-16 12:52:00,42.0,42.0,-100.00,West,262,11.0,20.0,100,0.02,,,0.07,204.000000,,2013-03-16 19:52:00,
2013-03-16 13:02:00,42.0,42.0,-100.00,West,262,11.0,20.0,100,0.02,,,0.07,204.000000,,2013-03-16 20:02:00,
2013-03-16 13:12:00,42.0,42.0,-100.00,West,262,11.0,20.0,100,0.02,,,0.07,204.000000,,2013-03-16 20:12:00,
2013-03-16 13:42:00,42.0,42.0,-100.00,West,260,10.0,21.0,100,0.04,,,0.11,278.000000,,2013-03-16 20:42:00,
2013-03-16 13:52:00,42.0,42.0,-100.00,West,260,10.0,21.0,100,0.04,,,0.11,278.000000,,2013-03-16 20:52:00,
2013-03-16 14:02:00,42.0,42.0,-100.00,West,260,10.0,21.0,100,0.04,,,0.11,278.000000,,2013-03-16 21:02:00,
2013-03-16 14:11:00,42.0,42.0,-100.00,West,260,10.0,21.0,100,0.04,,,0.11,278.000000,,2013-03-16 21:11:00,
2013-03-16 14:43:00,41.0,41.0,-100.00,West,262,10.0,22.0,100,0.01,,,0.12,267.000000,,2013-03-16 21:43:00,
2013-03-16 14:52:00,41.0,41.0,-100.00,West,262,10.0,22.0,100,0.01,,,0.12,267.000000,,2013-03-16 21:52:00,
2013-03-16 15:03:00,41.0,41.0,-100.00,West,262,10.0,22.0,100,0.01,,,0.12,267.000000,,2013-03-16 22:03:00,
2013-03-16 15:12:00,41.0,41.0,-100.00,West,262,10.0,22.0,100,0.01,,,0.12,267.000000,,2013-03-16 22:12:00,
2013-03-16 15:33:00,40.0,40.0,-100.00,West,265,12.0,22.0,100,0.00,,,0.12,348.000000,,2013-03-16 22:33:00,
2013-03-16 15:42:00,40.0,40.0,-100.00,West,265,12.0,22.0,100,0.00,,,0.12,348.000000,,2013-03-16 22:42:00,
2013-03-16 15:52:00,40.0,40.0,-100.00,West,265,12.0,22.0,100,0.00,,,0.12,348.000000,,2013-03-16 22:52:00,
2013-03-16 16:02:00,40.0,40.0,-100.00,West,265,12.0,22.0,100,0.00,,,0.12,348.000000,,2013-03-16 23:02:00,
2013-03-16 16:12:00,40.0,40.0,-100.00,West,265,12.0,22.0,100,0.00,,,0.12,348.000000,,2013-03-16 23:12:00,
2013-03-16 16:42:00,39.0,39.0,-100.00,West,271,13.0,26.0,100,0.02,,,0.14,294.000000,,2013-03-16 23:42:00,
2013-03-16 16:52:00,39.0,39.0,-100.00,West,271,13.0,26.0,100,0.02,,,0.14,294.000000,,2013-03-16 23:52:00,
2013-03-16 17:01:00,39.0,39.0,-100.00,West,271,13.0,26.0,100,0.02,,,0.14,294.000000,,2013-03-17 00:01:00,
2013-03-16 17:12:00,39.0,39.0,-100.00,West,271,13.0,26.0,100,0.02,,,0.14,294.000000,,2013-03-17 00:12:00,
2013-03-16 18:42:00,35.0,35.0,-100.00,West,261,12.0,24.0,100,-99.99,,,0.25,16.000000,,2013-03-17 01:42:00,
2013-03-16 18:53:00,35.0,35.0,-100.00,West,261,12.0,24.0,100,-99.99,,,0.25,16.000000,,2013-03-17 01:53:00,
2013-03-16 19:02:00,35.0,35.0,-100.00,West,261,12.0,24.0,100,-99.99,,,0.25,16.000000,,2013-03-17 02:02:00,
2013-03-16 19:12:00,35.0,35.0,-100.00,West,261,12.0,24.0,100,-99.99,,,0.25,16.000000,,2013-03-17 02:12:00,
2013-03-16 19:43:00,32.0,32.0,-100.00,West,265,11.0,17.0,100,0.04,,,0.29,6.000000,,2013-03-17 02:43:00,
2013-03-16 19:52:00,32.0,32.0,-100.00,West,265,11.0,17.0,100,0.04,,,0.29,6.000000,,2013-03-17 02:52:00,
2013-03-16 20:02:00,32.0,32.0,-100.00,West,265,11.0,17.0,100,0.04,,,0.29,6.000000,,2013-03-17 03:02:00,
2013-03-16 20:11:00,32.0,32.0,-100.00,West,265,11.0,17.0,100,0.04,,,0.29,6.000000,,2013-03-17 03:11:00,
2013-03-16 20:34:00,31.0,31.0,-100.00,WSW,252,6.0,16.0,100,0.07,,,0.36,1.000000,,2013-03-17 03:34:00,
2013-03-16 20:43:00,31.0,31.0,-100.00,WSW,252,6.0,16.0,100,0.07,,,0.36,1.000000,,2013-03-17 03:43:00,
2013-03-16 20:53:00,31.0,31.0,-100.00,WSW,252,6.0,16.0,100,0.07,,,0.36,1.000000,,2013-03-17 03:53:00,
2013-03-16 21:02:00,31.0,31.0,-100.00,WSW,252,6.0,16.0,100,0.07,,,0.36,1.000000,,2013-03-17 04:02:00,
2013-03-16 21:12:00,31.0,31.0,-100.00,WSW,252,6.0,16.0,100,0.07,,,0.36,1.000000,,2013-03-17 04:12:00,
2013-03-16 21:43:00,31.0,31.0,-100.00,WSW,258,5.0,13.0,100,0.04,,,0.40,1.000000,,2013-03-17 04:43:00,
2013-03-16 21:53:00,31.0,31.0,-100.00,WSW,258,5.0,13.0,100,0.04,,,0.40,1.000000,,2013-03-17 04:53:00,
2013-03-16 22:02:00,31.0,31.0,-100.00,WSW,258,5.0,13.0,100,0.04,,,0.40,1.000000,,2013-03-17 05:02:00,
2013-03-16 22:12:00,31.0,31.0,-100.00,WSW,258,5.0,13.0,100,0.04,,,0.40,1.000000,,2013-03-17 05:12:00,
2013-03-16 22:42:00,31.0,31.0,-100.00,West,262,10.0,19.0,100,0.03,,,0.43,1.000000,,2013-03-17 05:42:00,
2013-03-16 22:52:00,31.0,31.0,-100.00,West,262,10.0,19.0,100,0.03,,,0.43,1.000000,,2013-03-17 05:52:00,
2013-03-16 23:02:00,31.0,31.0,-100.00,West,262,10.0,19.0,100,0.03,,,0.43,1.000000,,2013-03-17 06:02:00,
2013-03-16 23:12:00,31.0,31.0,-100.00,West,262,10.0,19.0,100,0.03,,,0.43,1.000000,,2013-03-17 06:12:00,
2013-03-16 23:42:00,30.0,30.0,-100.00,West,268,13.0,22.0,100,0.02,,,0.45,1.000000,,2013-03-17 06:42:00,
2013-03-16 23:52:00,30.0,30.0,-100.00,West,268,13.0,22.0,100,0.02,,,0.45,1.000000,,2013-03-17 06:52:00,